sensor_id;sensor_type;location;lat;lon;timestamp;pressure;altitude;pressure_sealevel;temperature;humidity
818;BME280;391;51.052;6.954;2023-01-30T00:01:39;101347.44;;;3.74;95.46
818;BME280;391;51.052;6.954;2023-01-30T00:03:45;101325.91;;;3.87;95.79
818;BME280;391;51.052;6.954;2023-01-30T00:05:49;101232.50;;;3.26;95.30
818;BME280;391;51.052;6.954;2023-01-30T00:07:52;101327.53;;;3.72;96.42
818;BME280;391;51.052;6.954;2023-01-30T00:09:56;101299.94;;;3.71;97.20
818;BME280;391;51.052;6.954;2023-01-30T00:11:59;101284.06;;;3.91;97.07
818;BME280;391;51.052;6.954;2023-01-30T00:14:03;101287.34;;;3.89;95.68
818;BME280;391;51.052;6.954;2023-01-30T00:16:07;101288.13;;;4.01;95.60
818;BME280;391;51.052;6.954;2023-01-30T00:18:11;101291.03;;;3.92;95.99
818;BME280;391;51.052;6.954;2023-01-30T00:20:16;101296.66;;;4.00;96.57
818;BME280;391;51.052;6.954;2023-01-30T00:22:20;101303.81;;;3.91;96.83
818;BME280;391;51.052;6.954;2023-01-30T00:24:24;101300.31;;;4.03;96.71
818;BME280;391;51.052;6.954;2023-01-30T00:26:27;101311.94;;;3.97;96.80
818;BME280;391;51.052;6.954;2023-01-30T00:28:31;101295.53;;;4.09;96.77
818;BME280;391;51.052;6.954;2023-01-30T00:30:35;101292.19;;;4.10;96.01
818;BME280;391;51.052;6.954;2023-01-30T00:32:39;101293.28;;;4.14;96.48
818;BME280;391;51.052;6.954;2023-01-30T00:34:42;101284.38;;;4.37;95.89
818;BME280;391;51.052;6.954;2023-01-30T00:36:47;101282.09;;;4.28;95.39
818;BME280;391;51.052;6.954;2023-01-30T00:39:07;101286.06;;;4.36;95.27
818;BME280;391;51.052;6.954;2023-01-30T00:41:11;101274.16;;;4.25;94.91
818;BME280;391;51.052;6.954;2023-01-30T00:43:18;101274.69;;;4.19;95.98
818;BME280;391;51.052;6.954;2023-01-30T00:45:43;101273.09;;;4.21;95.71
818;BME280;391;51.052;6.954;2023-01-30T00:48:05;101273.25;;;4.38;95.59
818;BME280;391;51.052;6.954;2023-01-30T00:50:09;101271.63;;;4.12;95.74
818;BME280;391;51.052;6.954;2023-01-30T00:52:16;101258.63;;;4.10;96.53
818;BME280;391;51.052;6.954;2023-01-30T00:54:19;101260.88;;;4.19;95.90
818;BME280;391;51.052;6.954;2023-01-30T00:56:23;101253.38;;;4.09;96.44
818;BME280;391;51.052;6.954;2023-01-30T00:58:26;101242.84;;;4.06;96.98
818;BME280;391;51.052;6.954;2023-01-30T01:00:30;101238.75;;;4.22;96.57
818;BME280;391;51.052;6.954;2023-01-30T01:02:34;101233.56;;;4.36;95.74
818;BME280;391;51.052;6.954;2023-01-30T01:04:38;101213.63;;;4.33;95.49
818;BME280;391;51.052;6.954;2023-01-30T01:06:45;101213.06;;;4.24;96.68
818;BME280;391;51.052;6.954;2023-01-30T01:08:50;101215.94;;;4.15;95.54
818;BME280;391;51.052;6.954;2023-01-30T01:10:54;101224.13;;;4.08;96.83
818;BME280;391;51.052;6.954;2023-01-30T01:12:57;101234.81;;;4.14;96.96
818;BME280;391;51.052;6.954;2023-01-30T01:15:01;101233.81;;;4.12;96.16
818;BME280;391;51.052;6.954;2023-01-30T01:17:05;101238.69;;;4.21;97.09
818;BME280;391;51.052;6.954;2023-01-30T01:19:08;101226.25;;;4.15;96.91
818;BME280;391;51.052;6.954;2023-01-30T01:21:15;101207.81;;;4.09;97.09
818;BME280;391;51.052;6.954;2023-01-30T01:23:21;101215.53;;;4.22;97.23
818;BME280;391;51.052;6.954;2023-01-30T01:25:26;101114.91;;;3.67;96.34
818;BME280;391;51.052;6.954;2023-01-30T01:27:33;101208.81;;;4.39;96.75
818;BME280;391;51.052;6.954;2023-01-30T01:29:36;101217.16;;;4.35;96.65
818;BME280;391;51.052;6.954;2023-01-30T01:31:40;101217.53;;;4.41;96.52
818;BME280;391;51.052;6.954;2023-01-30T01:33:44;101214.53;;;4.48;95.54
818;BME280;391;51.052;6.954;2023-01-30T01:35:48;101204.81;;;4.44;95.93
818;BME280;391;51.052;6.954;2023-01-30T01:37:52;101187.69;;;4.32;96.15
818;BME280;391;51.052;6.954;2023-01-30T01:39:55;101196.34;;;4.47;95.94
818;BME280;391;51.052;6.954;2023-01-30T01:42:34;101206.41;;;4.42;96.36
818;BME280;391;51.052;6.954;2023-01-30T01:44:59;101211.28;;;4.38;95.95
818;BME280;391;51.052;6.954;2023-01-30T01:47:07;101195.38;;;4.30;96.92
818;BME280;391;51.052;6.954;2023-01-30T01:49:16;101193.16;;;4.36;96.57
818;BME280;391;51.052;6.954;2023-01-30T01:51:27;101189.44;;;4.46;95.97
818;BME280;391;51.052;6.954;2023-01-30T01:53:33;101195.44;;;4.32;96.50
818;BME280;391;51.052;6.954;2023-01-30T01:55:40;101188.22;;;4.26;96.02
818;BME280;391;51.052;6.954;2023-01-30T01:57:49;101179.16;;;4.33;96.68
818;BME280;391;51.052;6.954;2023-01-30T02:00:00;101180.97;;;4.48;96.15
818;BME280;391;51.052;6.954;2023-01-30T02:02:14;101180.56;;;4.55;95.69
818;BME280;391;51.052;6.954;2023-01-30T02:04:19;101175.03;;;4.64;95.16
818;BME280;391;51.052;6.954;2023-01-30T02:06:48;101172.81;;;4.55;95.92
818;BME280;391;51.052;6.954;2023-01-30T02:08:54;101176.91;;;4.66;95.76
818;BME280;391;51.052;6.954;2023-01-30T02:11:05;101175.81;;;4.63;95.73
818;BME280;391;51.052;6.954;2023-01-30T02:13:13;100954.84;;;3.35;95.76
818;BME280;391;51.052;6.954;2023-01-30T02:15:18;101163.81;;;4.49;96.93
818;BME280;391;51.052;6.954;2023-01-30T02:17:22;101162.28;;;4.52;96.46
818;BME280;391;51.052;6.954;2023-01-30T02:19:33;101148.84;;;4.43;96.47
818;BME280;391;51.052;6.954;2023-01-30T02:21:59;101143.06;;;4.62;95.96
818;BME280;391;51.052;6.954;2023-01-30T02:24:25;101138.88;;;4.64;95.54
818;BME280;391;51.052;6.954;2023-01-30T02:26:52;101154.00;;;4.72;95.78
818;BME280;391;51.052;6.954;2023-01-30T02:31:47;101125.34;;;4.68;96.08
818;BME280;391;51.052;6.954;2023-01-30T02:34:03;101127.38;;;4.73;95.29
818;BME280;391;51.052;6.954;2023-01-30T02:36:15;101136.50;;;4.82;95.36
818;BME280;391;51.052;6.954;2023-01-30T02:38:32;101121.16;;;4.70;95.49
818;BME280;391;51.052;6.954;2023-01-30T02:40:46;101114.22;;;4.54;96.35
818;BME280;391;51.052;6.954;2023-01-30T02:42:59;101099.78;;;4.72;96.60
818;BME280;391;51.052;6.954;2023-01-30T02:45:11;101107.25;;;4.82;95.96
818;BME280;391;51.052;6.954;2023-01-30T02:47:24;101099.63;;;4.55;96.69
818;BME280;391;51.052;6.954;2023-01-30T02:49:36;101098.09;;;4.58;97.50
818;BME280;391;51.052;6.954;2023-01-30T02:51:43;101094.44;;;4.69;97.02
818;BME280;391;51.052;6.954;2023-01-30T02:53:49;101095.09;;;4.65;96.89
818;BME280;391;51.052;6.954;2023-01-30T02:55:54;101086.09;;;4.59;97.91
818;BME280;391;51.052;6.954;2023-01-30T02:57:58;101083.50;;;4.44;98.38
818;BME280;391;51.052;6.954;2023-01-30T03:00:04;101088.84;;;4.33;99.01
818;BME280;391;51.052;6.954;2023-01-30T03:02:23;101075.94;;;4.33;99.63
818;BME280;391;51.052;6.954;2023-01-30T03:04:47;101055.63;;;4.39;98.88
818;BME280;391;51.052;6.954;2023-01-30T03:07:15;101065.19;;;4.40;98.98
818;BME280;391;51.052;6.954;2023-01-30T03:09:28;101059.28;;;4.57;98.57
818;BME280;391;51.052;6.954;2023-01-30T03:11:43;101051.78;;;4.47;97.80
818;BME280;391;51.052;6.954;2023-01-30T03:13:54;101065.78;;;4.50;98.00
818;BME280;391;51.052;6.954;2023-01-30T03:16:09;101062.50;;;4.53;97.69
818;BME280;391;51.052;6.954;2023-01-30T03:18:17;101057.34;;;4.53;98.12
818;BME280;391;51.052;6.954;2023-01-30T03:20:21;101048.59;;;4.51;97.96
818;BME280;391;51.052;6.954;2023-01-30T03:22:25;101058.56;;;4.45;98.89
818;BME280;391;51.052;6.954;2023-01-30T03:24:31;101055.78;;;4.56;99.10
818;BME280;391;51.052;6.954;2023-01-30T03:26:37;101045.56;;;4.58;98.67
818;BME280;391;51.052;6.954;2023-01-30T03:28:45;101047.78;;;4.66;97.73
818;BME280;391;51.052;6.954;2023-01-30T03:30:51;101054.75;;;4.53;99.06
818;BME280;391;51.052;6.954;2023-01-30T03:32:55;101052.59;;;4.60;98.68
818;BME280;391;51.052;6.954;2023-01-30T03:35:01;101059.78;;;4.66;98.09
818;BME280;391;51.052;6.954;2023-01-30T03:37:05;101061.03;;;4.72;98.11
818;BME280;391;51.052;6.954;2023-01-30T03:39:10;101048.41;;;4.77;98.20
818;BME280;391;51.052;6.954;2023-01-30T03:41:14;101046.88;;;4.66;98.22
818;BME280;391;51.052;6.954;2023-01-30T03:43:18;101034.19;;;4.69;98.24
818;BME280;391;51.052;6.954;2023-01-30T03:45:22;101028.38;;;4.73;98.66
818;BME280;391;51.052;6.954;2023-01-30T03:47:26;101048.06;;;4.71;98.65
818;BME280;391;51.052;6.954;2023-01-30T03:49:31;101023.03;;;4.70;98.82
818;BME280;391;51.052;6.954;2023-01-30T03:51:36;101020.88;;;4.77;98.54
818;BME280;391;51.052;6.954;2023-01-30T03:53:40;101018.81;;;4.87;98.31
818;BME280;391;51.052;6.954;2023-01-30T03:55:45;101025.78;;;4.88;98.03
818;BME280;391;51.052;6.954;2023-01-30T03:57:54;101023.09;;;4.86;98.31
818;BME280;391;51.052;6.954;2023-01-30T03:59:59;101029.25;;;4.88;98.18
818;BME280;391;51.052;6.954;2023-01-30T04:02:04;101013.13;;;4.77;98.38
818;BME280;391;51.052;6.954;2023-01-30T04:04:09;101014.81;;;4.77;98.77
818;BME280;391;51.052;6.954;2023-01-30T04:06:13;101004.59;;;4.78;98.31
818;BME280;391;51.052;6.954;2023-01-30T04:08:18;100999.94;;;4.73;99.24
818;BME280;391;51.052;6.954;2023-01-30T04:10:23;100989.09;;;4.78;99.21
818;BME280;391;51.052;6.954;2023-01-30T04:12:27;100978.44;;;4.89;99.19
818;BME280;391;51.052;6.954;2023-01-30T04:14:33;100979.56;;;4.77;99.05
818;BME280;391;51.052;6.954;2023-01-30T04:16:50;100968.97;;;4.73;100.00
818;BME280;391;51.052;6.954;2023-01-30T04:19:19;100968.22;;;4.90;99.87
818;BME280;391;51.052;6.954;2023-01-30T04:21:23;100972.75;;;4.94;98.65
818;BME280;391;51.052;6.954;2023-01-30T04:23:28;100992.19;;;4.88;99.07
818;BME280;391;51.052;6.954;2023-01-30T04:25:32;100982.16;;;4.77;100.00
818;BME280;391;51.052;6.954;2023-01-30T04:27:42;100977.72;;;4.75;100.00
818;BME280;391;51.052;6.954;2023-01-30T04:29:56;100988.09;;;4.91;100.00
818;BME280;391;51.052;6.954;2023-01-30T04:32:00;100988.38;;;4.81;99.49
818;BME280;391;51.052;6.954;2023-01-30T04:34:08;100989.84;;;4.92;99.81
818;BME280;391;51.052;6.954;2023-01-30T04:36:11;100988.88;;;4.90;99.60
818;BME280;391;51.052;6.954;2023-01-30T04:38:16;100982.81;;;4.90;99.40
818;BME280;391;51.052;6.954;2023-01-30T04:40:21;100984.28;;;4.85;100.00
818;BME280;391;51.052;6.954;2023-01-30T04:42:25;100985.06;;;4.84;100.00
818;BME280;391;51.052;6.954;2023-01-30T04:44:58;100977.81;;;4.93;100.00
818;BME280;391;51.052;6.954;2023-01-30T04:47:03;100972.41;;;4.88;100.00
818;BME280;391;51.052;6.954;2023-01-30T04:49:08;100959.97;;;4.81;100.00
818;BME280;391;51.052;6.954;2023-01-30T04:51:13;100975.78;;;4.87;100.00
818;BME280;391;51.052;6.954;2023-01-30T04:53:18;100970.53;;;4.86;100.00
818;BME280;391;51.052;6.954;2023-01-30T04:55:23;100969.31;;;4.79;100.00
818;BME280;391;51.052;6.954;2023-01-30T04:57:27;100958.44;;;4.85;100.00
818;BME280;391;51.052;6.954;2023-01-30T04:59:31;100977.03;;;4.94;100.00
818;BME280;391;51.052;6.954;2023-01-30T05:01:38;100974.16;;;4.89;100.00
818;BME280;391;51.052;6.954;2023-01-30T05:03:42;100957.09;;;4.91;100.00
818;BME280;391;51.052;6.954;2023-01-30T05:05:46;100971.53;;;4.88;100.00
818;BME280;391;51.052;6.954;2023-01-30T05:07:50;100954.72;;;4.96;100.00
818;BME280;391;51.052;6.954;2023-01-30T05:09:54;100950.63;;;4.99;100.00
818;BME280;391;51.052;6.954;2023-01-30T05:11:59;100958.47;;;5.01;100.00
818;BME280;391;51.052;6.954;2023-01-30T05:14:02;100968.94;;;4.88;100.00
818;BME280;391;51.052;6.954;2023-01-30T05:16:06;100948.78;;;4.97;100.00
818;BME280;391;51.052;6.954;2023-01-30T05:18:10;100952.16;;;4.96;100.00
818;BME280;391;51.052;6.954;2023-01-30T05:20:13;100945.19;;;4.95;100.00
818;BME280;391;51.052;6.954;2023-01-30T05:22:17;100943.78;;;5.00;100.00
818;BME280;391;51.052;6.954;2023-01-30T05:24:21;100956.22;;;5.07;100.00
818;BME280;391;51.052;6.954;2023-01-30T05:26:25;100957.88;;;4.90;100.00
818;BME280;391;51.052;6.954;2023-01-30T05:28:30;100949.25;;;4.90;100.00
818;BME280;391;51.052;6.954;2023-01-30T05:30:34;100944.66;;;5.00;100.00
818;BME280;391;51.052;6.954;2023-01-30T05:32:42;100953.53;;;5.05;100.00
818;BME280;391;51.052;6.954;2023-01-30T05:34:47;100939.81;;;5.06;100.00
818;BME280;391;51.052;6.954;2023-01-30T05:36:51;100937.72;;;5.15;100.00
818;BME280;391;51.052;6.954;2023-01-30T05:38:54;100939.09;;;5.09;100.00
818;BME280;391;51.052;6.954;2023-01-30T05:40:59;100937.97;;;5.04;100.00
818;BME280;391;51.052;6.954;2023-01-30T05:43:03;100929.00;;;4.97;100.00
818;BME280;391;51.052;6.954;2023-01-30T05:45:09;100932.22;;;4.93;100.00
818;BME280;391;51.052;6.954;2023-01-30T05:47:12;100931.06;;;5.04;100.00
818;BME280;391;51.052;6.954;2023-01-30T05:49:17;100944.00;;;5.04;100.00
818;BME280;391;51.052;6.954;2023-01-30T05:51:22;100922.78;;;4.94;100.00
818;BME280;391;51.052;6.954;2023-01-30T05:53:29;100937.72;;;4.99;100.00
818;BME280;391;51.052;6.954;2023-01-30T05:55:33;100929.31;;;5.03;100.00
818;BME280;391;51.052;6.954;2023-01-30T05:57:36;100938.94;;;5.06;100.00
818;BME280;391;51.052;6.954;2023-01-30T05:59:40;100887.50;;;4.94;100.00
818;BME280;391;51.052;6.954;2023-01-30T06:01:45;100929.97;;;5.15;100.00
818;BME280;391;51.052;6.954;2023-01-30T06:03:48;100927.84;;;5.08;100.00
818;BME280;391;51.052;6.954;2023-01-30T06:05:52;100941.25;;;5.17;100.00
818;BME280;391;51.052;6.954;2023-01-30T06:07:56;100940.47;;;5.18;100.00
818;BME280;391;51.052;6.954;2023-01-30T06:09:59;100929.88;;;5.30;100.00
818;BME280;391;51.052;6.954;2023-01-30T06:12:03;100938.84;;;5.20;100.00
818;BME280;391;51.052;6.954;2023-01-30T06:14:09;100946.13;;;5.27;100.00
818;BME280;391;51.052;6.954;2023-01-30T06:16:14;100932.25;;;5.25;100.00
818;BME280;391;51.052;6.954;2023-01-30T06:18:20;100945.47;;;5.15;100.00
818;BME280;391;51.052;6.954;2023-01-30T06:20:23;100948.22;;;5.18;100.00
818;BME280;391;51.052;6.954;2023-01-30T06:22:28;100951.13;;;5.24;100.00
818;BME280;391;51.052;6.954;2023-01-30T06:24:31;100947.97;;;5.14;100.00
818;BME280;391;51.052;6.954;2023-01-30T06:26:35;100946.69;;;5.22;100.00
818;BME280;391;51.052;6.954;2023-01-30T06:28:39;100963.41;;;5.28;100.00
818;BME280;391;51.052;6.954;2023-01-30T06:30:43;100969.97;;;5.38;100.00
818;BME280;391;51.052;6.954;2023-01-30T06:32:49;100957.94;;;5.22;100.00
818;BME280;391;51.052;6.954;2023-01-30T06:34:54;100929.81;;;5.12;100.00
818;BME280;391;51.052;6.954;2023-01-30T06:36:58;100959.47;;;5.35;100.00
818;BME280;391;51.052;6.954;2023-01-30T06:39:03;100957.03;;;5.38;100.00
818;BME280;391;51.052;6.954;2023-01-30T06:41:07;100942.97;;;5.49;100.00
818;BME280;391;51.052;6.954;2023-01-30T06:43:10;100963.81;;;5.52;100.00
818;BME280;391;51.052;6.954;2023-01-30T06:45:15;100944.47;;;5.62;100.00
818;BME280;391;51.052;6.954;2023-01-30T06:47:19;100943.47;;;5.58;100.00
818;BME280;391;51.052;6.954;2023-01-30T06:49:23;100947.75;;;5.42;100.00
818;BME280;391;51.052;6.954;2023-01-30T06:51:29;100960.75;;;5.43;100.00
818;BME280;391;51.052;6.954;2023-01-30T06:53:34;100979.66;;;5.42;100.00
818;BME280;391;51.052;6.954;2023-01-30T06:55:37;100968.28;;;5.55;100.00
818;BME280;391;51.052;6.954;2023-01-30T06:57:41;100979.25;;;5.51;100.00
818;BME280;391;51.052;6.954;2023-01-30T06:59:45;100984.41;;;5.67;100.00
818;BME280;391;51.052;6.954;2023-01-30T07:01:50;100979.56;;;5.57;100.00
818;BME280;391;51.052;6.954;2023-01-30T07:03:53;100983.94;;;5.74;100.00
818;BME280;391;51.052;6.954;2023-01-30T07:05:57;100981.56;;;5.78;100.00
818;BME280;391;51.052;6.954;2023-01-30T07:08:02;100991.56;;;5.87;100.00
818;BME280;391;51.052;6.954;2023-01-30T07:10:11;100998.22;;;5.83;100.00
818;BME280;391;51.052;6.954;2023-01-30T07:12:15;100987.94;;;5.85;100.00
818;BME280;391;51.052;6.954;2023-01-30T07:14:18;100994.16;;;5.87;100.00
818;BME280;391;51.052;6.954;2023-01-30T07:16:22;100987.19;;;5.86;100.00
818;BME280;391;51.052;6.954;2023-01-30T07:18:30;100989.25;;;5.77;100.00
818;BME280;391;51.052;6.954;2023-01-30T07:20:34;100980.81;;;5.81;100.00
818;BME280;391;51.052;6.954;2023-01-30T07:22:37;100984.97;;;5.77;100.00
818;BME280;391;51.052;6.954;2023-01-30T07:24:42;100987.66;;;5.95;100.00
818;BME280;391;51.052;6.954;2023-01-30T07:26:46;100971.16;;;5.93;100.00
818;BME280;391;51.052;6.954;2023-01-30T07:28:50;100979.03;;;6.12;100.00
818;BME280;391;51.052;6.954;2023-01-30T07:30:54;100987.53;;;6.10;100.00
818;BME280;391;51.052;6.954;2023-01-30T07:32:58;100990.38;;;5.98;100.00
818;BME280;391;51.052;6.954;2023-01-30T07:35:03;100975.50;;;5.94;100.00
818;BME280;391;51.052;6.954;2023-01-30T07:37:07;100986.97;;;6.15;100.00
818;BME280;391;51.052;6.954;2023-01-30T07:39:10;100984.38;;;6.15;100.00
818;BME280;391;51.052;6.954;2023-01-30T07:41:15;100981.50;;;6.27;100.00
818;BME280;391;51.052;6.954;2023-01-30T07:43:19;100990.00;;;6.24;100.00
818;BME280;391;51.052;6.954;2023-01-30T07:45:23;100888.25;;;5.58;100.00
818;BME280;391;51.052;6.954;2023-01-30T07:47:27;100991.34;;;6.00;100.00
818;BME280;391;51.052;6.954;2023-01-30T07:49:31;100988.09;;;6.04;100.00
818;BME280;391;51.052;6.954;2023-01-30T07:51:35;100989.06;;;6.06;100.00
818;BME280;391;51.052;6.954;2023-01-30T07:53:39;100941.81;;;5.76;100.00
818;BME280;391;51.052;6.954;2023-01-30T07:55:43;100992.53;;;6.07;100.00
818;BME280;391;51.052;6.954;2023-01-30T07:57:48;101000.88;;;6.17;100.00
818;BME280;391;51.052;6.954;2023-01-30T07:59:51;100999.72;;;6.28;100.00
818;BME280;391;51.052;6.954;2023-01-30T08:01:55;100999.03;;;6.32;100.00
818;BME280;391;51.052;6.954;2023-01-30T08:04:00;100999.22;;;6.19;100.00
818;BME280;391;51.052;6.954;2023-01-30T08:06:05;100994.44;;;6.09;100.00
818;BME280;391;51.052;6.954;2023-01-30T08:08:09;100991.50;;;6.03;100.00
818;BME280;391;51.052;6.954;2023-01-30T08:10:12;100985.03;;;6.11;100.00
818;BME280;391;51.052;6.954;2023-01-30T08:12:16;100998.75;;;6.10;100.00
818;BME280;391;51.052;6.954;2023-01-30T08:14:20;100992.44;;;6.21;100.00
818;BME280;391;51.052;6.954;2023-01-30T08:16:24;101011.81;;;6.29;100.00
818;BME280;391;51.052;6.954;2023-01-30T08:18:28;101004.59;;;6.40;100.00
818;BME280;391;51.052;6.954;2023-01-30T08:20:32;101012.13;;;6.35;100.00
818;BME280;391;51.052;6.954;2023-01-30T08:22:36;101010.22;;;6.31;100.00
818;BME280;391;51.052;6.954;2023-01-30T08:24:39;101021.19;;;6.44;100.00
818;BME280;391;51.052;6.954;2023-01-30T08:26:44;101020.00;;;6.55;100.00
818;BME280;391;51.052;6.954;2023-01-30T08:28:50;101019.53;;;6.46;100.00
818;BME280;391;51.052;6.954;2023-01-30T08:30:55;101039.91;;;6.38;100.00
818;BME280;391;51.052;6.954;2023-01-30T08:32:59;101028.25;;;6.30;100.00
818;BME280;391;51.052;6.954;2023-01-30T08:35:04;101028.56;;;6.36;100.00
818;BME280;391;51.052;6.954;2023-01-30T08:37:08;101029.91;;;6.46;100.00
818;BME280;391;51.052;6.954;2023-01-30T08:39:12;101042.63;;;6.41;100.00
818;BME280;391;51.052;6.954;2023-01-30T08:41:16;101015.25;;;6.46;100.00
818;BME280;391;51.052;6.954;2023-01-30T08:43:20;101017.69;;;6.61;100.00
818;BME280;391;51.052;6.954;2023-01-30T08:45:23;101027.56;;;6.50;100.00
818;BME280;391;51.052;6.954;2023-01-30T08:47:28;101026.81;;;6.53;100.00
818;BME280;391;51.052;6.954;2023-01-30T08:49:32;101025.56;;;6.62;100.00
818;BME280;391;51.052;6.954;2023-01-30T08:51:37;101030.13;;;6.68;100.00
818;BME280;391;51.052;6.954;2023-01-30T08:53:40;101032.72;;;6.68;100.00
818;BME280;391;51.052;6.954;2023-01-30T08:55:44;101038.22;;;6.74;100.00
818;BME280;391;51.052;6.954;2023-01-30T08:57:49;101029.34;;;6.69;100.00
818;BME280;391;51.052;6.954;2023-01-30T08:59:52;101036.59;;;6.76;100.00
818;BME280;391;51.052;6.954;2023-01-30T09:01:56;101045.63;;;6.84;100.00
818;BME280;391;51.052;6.954;2023-01-30T09:04:00;101049.19;;;6.86;100.00
818;BME280;391;51.052;6.954;2023-01-30T09:06:04;101054.19;;;6.83;100.00
818;BME280;391;51.052;6.954;2023-01-30T09:08:08;101054.88;;;6.79;100.00
818;BME280;391;51.052;6.954;2023-01-30T09:10:12;101055.94;;;6.82;100.00
818;BME280;391;51.052;6.954;2023-01-30T09:12:16;101049.47;;;6.74;100.00
818;BME280;391;51.052;6.954;2023-01-30T09:14:19;101054.06;;;6.80;100.00
818;BME280;391;51.052;6.954;2023-01-30T09:16:24;101060.66;;;6.91;100.00
818;BME280;391;51.052;6.954;2023-01-30T09:18:28;101071.91;;;7.09;100.00
818;BME280;391;51.052;6.954;2023-01-30T09:20:33;101066.22;;;6.99;98.90
818;BME280;391;51.052;6.954;2023-01-30T09:22:36;101066.81;;;7.11;98.95
818;BME280;391;51.052;6.954;2023-01-30T09:24:40;101058.75;;;7.05;97.96
818;BME280;391;51.052;6.954;2023-01-30T09:26:43;101052.81;;;7.07;98.35
818;BME280;391;51.052;6.954;2023-01-30T09:28:47;101046.34;;;7.17;98.23
818;BME280;391;51.052;6.954;2023-01-30T09:30:50;101046.06;;;7.11;96.59
818;BME280;391;51.052;6.954;2023-01-30T09:32:54;101067.22;;;7.02;96.06
818;BME280;391;51.052;6.954;2023-01-30T09:34:58;101050.81;;;7.02;95.68
818;BME280;391;51.052;6.954;2023-01-30T09:37:03;101036.59;;;7.11;95.35
818;BME280;391;51.052;6.954;2023-01-30T09:39:08;101042.44;;;7.07;94.77
818;BME280;391;51.052;6.954;2023-01-30T09:41:31;101063.38;;;7.12;93.37
818;BME280;391;51.052;6.954;2023-01-30T09:43:48;101061.00;;;7.16;93.42
818;BME280;391;51.052;6.954;2023-01-30T09:46:03;101060.25;;;7.19;92.81
818;BME280;391;51.052;6.954;2023-01-30T09:48:18;101067.84;;;7.14;91.89
818;BME280;391;51.052;6.954;2023-01-30T09:52:55;101064.69;;;7.39;91.07
818;BME280;391;51.052;6.954;2023-01-30T09:55:18;101054.94;;;7.33;89.88
818;BME280;391;51.052;6.954;2023-01-30T09:57:23;101067.94;;;7.35;88.83
818;BME280;391;51.052;6.954;2023-01-30T09:59:33;101067.13;;;7.36;88.51
818;BME280;391;51.052;6.954;2023-01-30T10:01:44;101078.59;;;7.59;88.34
818;BME280;391;51.052;6.954;2023-01-30T10:04:08;101089.97;;;7.43;86.88
818;BME280;391;51.052;6.954;2023-01-30T10:06:14;101059.91;;;7.48;86.29
818;BME280;391;51.052;6.954;2023-01-30T10:08:39;101074.28;;;7.59;86.53
818;BME280;391;51.052;6.954;2023-01-30T10:10:46;101077.84;;;7.80;85.82
818;BME280;391;51.052;6.954;2023-01-30T10:13:21;101075.75;;;7.72;84.20
818;BME280;391;51.052;6.954;2023-01-30T10:15:33;101082.31;;;7.46;84.85
818;BME280;391;51.052;6.954;2023-01-30T10:17:48;101098.22;;;7.54;84.65
818;BME280;391;51.052;6.954;2023-01-30T10:20:15;101091.41;;;7.56;84.50
818;BME280;391;51.052;6.954;2023-01-30T10:22:38;101014.38;;;6.81;84.11
818;BME280;391;51.052;6.954;2023-01-30T10:24:54;101092.72;;;7.28;82.95
818;BME280;391;51.052;6.954;2023-01-30T10:27:03;100998.91;;;6.65;82.27
818;BME280;391;51.052;6.954;2023-01-30T10:29:16;101115.16;;;7.28;82.91
818;BME280;391;51.052;6.954;2023-01-30T10:31:22;101101.84;;;7.20;83.05
818;BME280;391;51.052;6.954;2023-01-30T10:33:32;101105.66;;;7.28;83.15
818;BME280;391;51.052;6.954;2023-01-30T10:35:38;101110.84;;;7.28;82.68
818;BME280;391;51.052;6.954;2023-01-30T10:37:49;101091.81;;;7.28;82.27
818;BME280;391;51.052;6.954;2023-01-30T10:40:02;101095.53;;;7.33;82.33
818;BME280;391;51.052;6.954;2023-01-30T10:42:11;101102.41;;;7.32;81.80
818;BME280;391;51.052;6.954;2023-01-30T10:44:15;101104.13;;;7.32;81.73
818;BME280;391;51.052;6.954;2023-01-30T10:46:32;101104.34;;;7.36;82.06
818;BME280;391;51.052;6.954;2023-01-30T10:48:51;101104.88;;;7.29;81.79
818;BME280;391;51.052;6.954;2023-01-30T10:51:02;101108.28;;;7.11;80.90
818;BME280;391;51.052;6.954;2023-01-30T10:53:14;101098.94;;;7.14;81.30
818;BME280;391;51.052;6.954;2023-01-30T10:55:29;101119.47;;;7.10;80.74
818;BME280;391;51.052;6.954;2023-01-30T10:57:52;101103.03;;;7.27;81.03
818;BME280;391;51.052;6.954;2023-01-30T11:00:00;101111.69;;;7.27;79.61
818;BME280;391;51.052;6.954;2023-01-30T11:02:15;101106.88;;;7.17;79.71
818;BME280;391;51.052;6.954;2023-01-30T11:04:29;101108.72;;;7.20;79.75
818;BME280;391;51.052;6.954;2023-01-30T11:06:34;101102.03;;;7.25;79.07
818;BME280;391;51.052;6.954;2023-01-30T11:08:38;101123.69;;;7.25;79.67
818;BME280;391;51.052;6.954;2023-01-30T11:10:43;101112.72;;;7.13;78.77
818;BME280;391;51.052;6.954;2023-01-30T11:12:48;101114.38;;;7.11;78.97
818;BME280;391;51.052;6.954;2023-01-30T11:14:56;101106.94;;;7.19;78.92
818;BME280;391;51.052;6.954;2023-01-30T11:17:01;101118.16;;;7.18;78.75
818;BME280;391;51.052;6.954;2023-01-30T11:19:05;101111.59;;;7.26;78.75
818;BME280;391;51.052;6.954;2023-01-30T11:21:28;101111.47;;;7.23;78.37
818;BME280;391;51.052;6.954;2023-01-30T11:23:45;101013.19;;;6.74;78.70
818;BME280;391;51.052;6.954;2023-01-30T11:25:53;101113.59;;;7.31;78.47
818;BME280;391;51.052;6.954;2023-01-30T11:28:14;101112.47;;;7.44;78.15
818;BME280;391;51.052;6.954;2023-01-30T11:30:20;101118.78;;;7.49;78.12
818;BME280;391;51.052;6.954;2023-01-30T11:32:26;101133.16;;;7.42;77.89
818;BME280;391;51.052;6.954;2023-01-30T11:34:31;101118.63;;;7.28;78.09
818;BME280;391;51.052;6.954;2023-01-30T11:36:35;101112.13;;;7.36;77.81
818;BME280;391;51.052;6.954;2023-01-30T11:38:55;101115.09;;;7.26;77.94
818;BME280;391;51.052;6.954;2023-01-30T11:41:10;101118.78;;;7.31;77.74
818;BME280;391;51.052;6.954;2023-01-30T11:43:15;101114.50;;;7.32;77.50
818;BME280;391;51.052;6.954;2023-01-30T11:45:24;101108.22;;;7.27;77.19
818;BME280;391;51.052;6.954;2023-01-30T11:47:31;101108.41;;;7.31;77.65
818;BME280;391;51.052;6.954;2023-01-30T11:49:40;101115.25;;;7.29;77.68
818;BME280;391;51.052;6.954;2023-01-30T11:52:05;101113.41;;;7.27;77.22
818;BME280;391;51.052;6.954;2023-01-30T11:54:12;101103.31;;;7.15;77.47